sensor_id;sensor_type;location;lat;lon;timestamp;P1;durP1;ratioP1;P2;durP2;ratioP2
71395;SDS011;59888;55.814;37.132;2023-07-16T00:00:12;9.82;;;5.78;;
71395;SDS011;59888;55.814;37.132;2023-07-16T00:02:38;9.00;;;5.20;;
71395;SDS011;59888;55.814;37.132;2023-07-16T00:05:05;7.85;;;5.63;;
71395;SDS011;59888;55.814;37.132;2023-07-16T00:07:32;8.90;;;4.93;;
71395;SDS011;59888;55.814;37.132;2023-07-16T00:09:58;9.93;;;5.88;;
71395;SDS011;59888;55.814;37.132;2023-07-16T00:12:25;8.15;;;4.90;;
71395;SDS011;59888;55.814;37.132;2023-07-16T00:14:51;7.07;;;4.85;;
71395;SDS011;59888;55.814;37.132;2023-07-16T00:17:17;6.43;;;4.70;;
71395;SDS011;59888;55.814;37.132;2023-07-16T00:19:43;8.15;;;5.00;;
71395;SDS011;59888;55.814;37.132;2023-07-16T00:22:09;8.05;;;5.20;;
71395;SDS011;59888;55.814;37.132;2023-07-16T00:24:35;7.55;;;5.13;;
71395;SDS011;59888;55.814;37.132;2023-07-16T00:27:01;8.27;;;4.90;;
71395;SDS011;59888;55.814;37.132;2023-07-16T00:29:30;7.05;;;4.78;;
71395;SDS011;59888;55.814;37.132;2023-07-16T00:31:56;6.30;;;4.80;;
71395;SDS011;59888;55.814;37.132;2023-07-16T00:34:23;8.25;;;4.72;;
71395;SDS011;59888;55.814;37.132;2023-07-16T00:36:49;6.90;;;5.28;;
71395;SDS011;59888;55.814;37.132;2023-07-16T00:39:16;7.07;;;4.05;;
71395;SDS011;59888;55.814;37.132;2023-07-16T00:41:42;8.48;;;4.90;;
71395;SDS011;59888;55.814;37.132;2023-07-16T00:44:08;6.82;;;4.80;;
71395;SDS011;59888;55.814;37.132;2023-07-16T00:46:34;9.05;;;5.07;;
71395;SDS011;59888;55.814;37.132;2023-07-16T00:49:00;7.70;;;4.53;;
71395;SDS011;59888;55.814;37.132;2023-07-16T00:51:27;8.48;;;4.68;;
71395;SDS011;59888;55.814;37.132;2023-07-16T00:53:53;7.22;;;4.90;;
71395;SDS011;59888;55.814;37.132;2023-07-16T00:56:20;10.20;;;4.30;;
71395;SDS011;59888;55.814;37.132;2023-07-16T00:58:47;6.95;;;4.32;;
71395;SDS011;59888;55.814;37.132;2023-07-16T01:01:13;7.35;;;4.35;;
71395;SDS011;59888;55.814;37.132;2023-07-16T01:03:39;7.68;;;4.68;;
71395;SDS011;59888;55.814;37.132;2023-07-16T01:06:10;10.40;;;4.00;;
71395;SDS011;59888;55.814;37.132;2023-07-16T01:08:42;8.18;;;4.50;;
71395;SDS011;59888;55.814;37.132;2023-07-16T01:11:17;8.10;;;4.32;;
71395;SDS011;59888;55.814;37.132;2023-07-16T01:13:44;8.07;;;4.40;;
71395;SDS011;59888;55.814;37.132;2023-07-16T01:16:21;7.60;;;4.55;;
71395;SDS011;59888;55.814;37.132;2023-07-16T01:18:50;5.95;;;4.50;;
71395;SDS011;59888;55.814;37.132;2023-07-16T01:21:20;7.95;;;4.35;;
71395;SDS011;59888;55.814;37.132;2023-07-16T01:32:03;5.30;;;4.05;;
71395;SDS011;59888;55.814;37.132;2023-07-16T01:34:32;6.75;;;4.18;;
71395;SDS011;59888;55.814;37.132;2023-07-16T01:37:00;6.28;;;4.07;;
71395;SDS011;59888;55.814;37.132;2023-07-16T01:39:27;6.63;;;3.80;;
71395;SDS011;59888;55.814;37.132;2023-07-16T01:41:53;6.05;;;4.38;;
71395;SDS011;59888;55.814;37.132;2023-07-16T01:44:20;8.38;;;4.55;;
71395;SDS011;59888;55.814;37.132;2023-07-16T01:46:47;6.93;;;4.57;;
71395;SDS011;59888;55.814;37.132;2023-07-16T01:49:27;6.57;;;4.30;;
71395;SDS011;59888;55.814;37.132;2023-07-16T01:51:56;6.38;;;4.50;;
71395;SDS011;59888;55.814;37.132;2023-07-16T01:54:22;6.60;;;4.20;;
71395;SDS011;59888;55.814;37.132;2023-07-16T01:56:50;9.02;;;5.28;;
71395;SDS011;59888;55.814;37.132;2023-07-16T01:59:15;5.95;;;4.18;;
71395;SDS011;59888;55.814;37.132;2023-07-16T02:01:41;5.82;;;4.38;;
71395;SDS011;59888;55.814;37.132;2023-07-16T02:04:07;6.43;;;4.40;;
71395;SDS011;59888;55.814;37.132;2023-07-16T02:06:33;10.23;;;4.22;;
71395;SDS011;59888;55.814;37.132;2023-07-16T02:08:59;5.95;;;4.10;;
71395;SDS011;59888;55.814;37.132;2023-07-16T02:11:25;5.82;;;3.88;;
71395;SDS011;59888;55.814;37.132;2023-07-16T02:13:51;6.40;;;4.28;;
71395;SDS011;59888;55.814;37.132;2023-07-16T02:16:17;5.88;;;4.10;;
71395;SDS011;59888;55.814;37.132;2023-07-16T02:18:43;5.82;;;4.30;;
71395;SDS011;59888;55.814;37.132;2023-07-16T02:21:09;7.53;;;4.20;;
71395;SDS011;59888;55.814;37.132;2023-07-16T02:23:35;6.70;;;4.00;;
71395;SDS011;59888;55.814;37.132;2023-07-16T02:26:01;7.05;;;4.20;;
71395;SDS011;59888;55.814;37.132;2023-07-16T02:28:27;6.32;;;4.07;;
71395;SDS011;59888;55.814;37.132;2023-07-16T02:30:53;7.07;;;4.32;;
71395;SDS011;59888;55.814;37.132;2023-07-16T02:33:19;5.82;;;4.20;;
71395;SDS011;59888;55.814;37.132;2023-07-16T02:35:49;5.78;;;4.40;;
71395;SDS011;59888;55.814;37.132;2023-07-16T02:38:17;7.68;;;4.53;;
71395;SDS011;59888;55.814;37.132;2023-07-16T02:40:46;7.20;;;4.20;;
71395;SDS011;59888;55.814;37.132;2023-07-16T02:43:14;8.00;;;4.63;;
71395;SDS011;59888;55.814;37.132;2023-07-16T02:45:40;9.23;;;4.60;;
71395;SDS011;59888;55.814;37.132;2023-07-16T02:48:07;5.85;;;4.53;;
71395;SDS011;59888;55.814;37.132;2023-07-16T02:50:34;5.72;;;4.30;;
71395;SDS011;59888;55.814;37.132;2023-07-16T02:53:04;5.97;;;4.32;;
71395;SDS011;59888;55.814;37.132;2023-07-16T02:55:31;6.38;;;4.30;;
71395;SDS011;59888;55.814;37.132;2023-07-16T02:57:57;5.80;;;4.43;;
71395;SDS011;59888;55.814;37.132;2023-07-16T03:00:23;7.43;;;4.30;;
71395;SDS011;59888;55.814;37.132;2023-07-16T03:02:50;7.25;;;4.50;;
71395;SDS011;59888;55.814;37.132;2023-07-16T03:05:17;7.53;;;4.75;;
71395;SDS011;59888;55.814;37.132;2023-07-16T03:07:43;5.78;;;4.30;;
71395;SDS011;59888;55.814;37.132;2023-07-16T03:10:09;10.85;;;4.45;;
71395;SDS011;59888;55.814;37.132;2023-07-16T03:12:38;6.10;;;4.80;;
71395;SDS011;59888;55.814;37.132;2023-07-16T03:15:04;6.18;;;4.47;;
71395;SDS011;59888;55.814;37.132;2023-07-16T03:17:32;6.43;;;4.38;;
71395;SDS011;59888;55.814;37.132;2023-07-16T03:19:58;7.47;;;4.60;;
71395;SDS011;59888;55.814;37.132;2023-07-16T03:22:24;6.13;;;4.65;;
71395;SDS011;59888;55.814;37.132;2023-07-16T03:24:51;11.07;;;4.90;;
71395;SDS011;59888;55.814;37.132;2023-07-16T03:27:17;7.60;;;4.40;;
71395;SDS011;59888;55.814;37.132;2023-07-16T03:29:43;9.35;;;4.60;;
71395;SDS011;59888;55.814;37.132;2023-07-16T03:32:13;8.38;;;5.00;;
71395;SDS011;59888;55.814;37.132;2023-07-16T03:34:39;6.43;;;4.43;;
71395;SDS011;59888;55.814;37.132;2023-07-16T03:37:05;12.95;;;5.15;;
71395;SDS011;59888;55.814;37.132;2023-07-16T03:39:32;5.28;;;4.40;;
71395;SDS011;59888;55.814;37.132;2023-07-16T03:41:58;8.00;;;4.78;;
71395;SDS011;59888;55.814;37.132;2023-07-16T03:44:24;7.25;;;4.28;;
71395;SDS011;59888;55.814;37.132;2023-07-16T03:46:50;9.00;;;5.07;;
71395;SDS011;59888;55.814;37.132;2023-07-16T03:49:16;7.10;;;4.90;;
71395;SDS011;59888;55.814;37.132;2023-07-16T03:51:42;7.72;;;4.55;;
71395;SDS011;59888;55.814;37.132;2023-07-16T03:54:09;8.23;;;4.60;;
71395;SDS011;59888;55.814;37.132;2023-07-16T03:56:35;7.28;;;5.20;;
71395;SDS011;59888;55.814;37.132;2023-07-16T03:59:02;6.88;;;4.80;;
71395;SDS011;59888;55.814;37.132;2023-07-16T04:01:28;6.70;;;4.57;;
71395;SDS011;59888;55.814;37.132;2023-07-16T04:03:56;7.43;;;5.30;;
71395;SDS011;59888;55.814;37.132;2023-07-16T04:06:21;9.10;;;4.57;;
71395;SDS011;59888;55.814;37.132;2023-07-16T04:08:48;7.18;;;4.75;;
71395;SDS011;59888;55.814;37.132;2023-07-16T04:11:14;6.95;;;4.63;;
71395;SDS011;59888;55.814;37.132;2023-07-16T04:13:40;6.47;;;4.35;;
71395;SDS011;59888;55.814;37.132;2023-07-16T04:16:06;6.75;;;4.82;;
71395;SDS011;59888;55.814;37.132;2023-07-16T04:18:32;10.20;;;4.95;;
71395;SDS011;59888;55.814;37.132;2023-07-16T04:20:58;6.63;;;5.00;;
71395;SDS011;59888;55.814;37.132;2023-07-16T04:23:24;7.60;;;4.93;;
71395;SDS011;59888;55.814;37.132;2023-07-16T04:25:51;7.90;;;5.30;;
71395;SDS011;59888;55.814;37.132;2023-07-16T04:28:21;7.68;;;4.97;;
71395;SDS011;59888;55.814;37.132;2023-07-16T04:30:47;5.32;;;4.68;;
71395;SDS011;59888;55.814;37.132;2023-07-16T04:33:13;6.90;;;4.45;;
71395;SDS011;59888;55.814;37.132;2023-07-16T04:35:39;7.07;;;5.05;;
71395;SDS011;59888;55.814;37.132;2023-07-16T04:38:05;8.65;;;4.88;;
71395;SDS011;59888;55.814;37.132;2023-07-16T04:40:33;7.47;;;5.00;;
71395;SDS011;59888;55.814;37.132;2023-07-16T04:42:59;8.38;;;4.72;;
71395;SDS011;59888;55.814;37.132;2023-07-16T04:45:25;6.47;;;4.80;;
71395;SDS011;59888;55.814;37.132;2023-07-16T04:47:52;7.65;;;4.72;;
71395;SDS011;59888;55.814;37.132;2023-07-16T04:50:18;6.20;;;4.88;;
71395;SDS011;59888;55.814;37.132;2023-07-16T04:52:44;7.47;;;5.00;;
71395;SDS011;59888;55.814;37.132;2023-07-16T04:55:10;6.28;;;4.78;;
71395;SDS011;59888;55.814;37.132;2023-07-16T04:57:37;7.60;;;4.65;;
71395;SDS011;59888;55.814;37.132;2023-07-16T05:00:04;6.18;;;4.60;;
71395;SDS011;59888;55.814;37.132;2023-07-16T05:02:32;6.15;;;4.95;;
71395;SDS011;59888;55.814;37.132;2023-07-16T05:04:58;7.05;;;4.47;;
71395;SDS011;59888;55.814;37.132;2023-07-16T05:07:24;7.53;;;4.85;;
71395;SDS011;59888;55.814;37.132;2023-07-16T05:09:50;7.88;;;5.10;;
71395;SDS011;59888;55.814;37.132;2023-07-16T05:12:16;6.28;;;4.78;;
71395;SDS011;59888;55.814;37.132;2023-07-16T05:14:46;6.00;;;4.50;;
71395;SDS011;59888;55.814;37.132;2023-07-16T05:17:13;4.53;;;3.78;;
71395;SDS011;59888;55.814;37.132;2023-07-16T05:19:40;7.65;;;4.45;;
71395;SDS011;59888;55.814;37.132;2023-07-16T05:22:06;6.43;;;3.92;;
71395;SDS011;59888;55.814;37.132;2023-07-16T05:24:32;6.68;;;4.20;;
71395;SDS011;59888;55.814;37.132;2023-07-16T05:26:58;6.75;;;4.00;;
71395;SDS011;59888;55.814;37.132;2023-07-16T05:29:25;5.60;;;3.60;;
71395;SDS011;59888;55.814;37.132;2023-07-16T05:31:51;5.07;;;3.53;;
71395;SDS011;59888;55.814;37.132;2023-07-16T05:34:17;6.68;;;4.20;;
71395;SDS011;59888;55.814;37.132;2023-07-16T05:36:43;6.97;;;3.88;;
71395;SDS011;59888;55.814;37.132;2023-07-16T05:39:12;5.97;;;3.53;;
71395;SDS011;59888;55.814;37.132;2023-07-16T05:41:41;4.90;;;3.70;;
71395;SDS011;59888;55.814;37.132;2023-07-16T05:44:07;5.03;;;3.38;;
71395;SDS011;59888;55.814;37.132;2023-07-16T05:46:34;6.68;;;4.05;;
71395;SDS011;59888;55.814;37.132;2023-07-16T05:49:00;4.80;;;3.75;;
71395;SDS011;59888;55.814;37.132;2023-07-16T05:51:26;4.43;;;3.30;;
71395;SDS011;59888;55.814;37.132;2023-07-16T05:53:52;3.72;;;3.10;;
71395;SDS011;59888;55.814;37.132;2023-07-16T05:56:19;5.00;;;3.25;;
71395;SDS011;59888;55.814;37.132;2023-07-16T05:58:45;6.35;;;3.65;;
71395;SDS011;59888;55.814;37.132;2023-07-16T06:01:11;5.15;;;3.00;;
71395;SDS011;59888;55.814;37.132;2023-07-16T06:03:39;5.72;;;3.70;;
71395;SDS011;59888;55.814;37.132;2023-07-16T06:06:05;3.92;;;3.10;;
71395;SDS011;59888;55.814;37.132;2023-07-16T06:08:33;4.70;;;3.38;;
71395;SDS011;59888;55.814;37.132;2023-07-16T06:10:59;5.72;;;3.40;;
71395;SDS011;59888;55.814;37.132;2023-07-16T06:13:26;4.18;;;3.15;;
71395;SDS011;59888;55.814;37.132;2023-07-16T06:15:52;3.95;;;3.28;;
71395;SDS011;59888;55.814;37.132;2023-07-16T06:18:18;4.80;;;3.20;;
71395;SDS011;59888;55.814;37.132;2023-07-16T06:20:47;3.85;;;2.75;;
71395;SDS011;59888;55.814;37.132;2023-07-16T06:23:13;4.05;;;2.90;;
71395;SDS011;59888;55.814;37.132;2023-07-16T06:25:42;4.35;;;3.30;;
71395;SDS011;59888;55.814;37.132;2023-07-16T06:28:11;4.80;;;3.20;;
71395;SDS011;59888;55.814;37.132;2023-07-16T06:30:37;6.70;;;3.42;;
71395;SDS011;59888;55.814;37.132;2023-07-16T06:33:03;4.57;;;3.00;;
71395;SDS011;59888;55.814;37.132;2023-07-16T06:35:29;4.45;;;3.20;;
71395;SDS011;59888;55.814;37.132;2023-07-16T06:37:55;4.30;;;2.95;;
71395;SDS011;59888;55.814;37.132;2023-07-16T06:40:21;3.15;;;2.70;;
71395;SDS011;59888;55.814;37.132;2023-07-16T06:42:47;5.22;;;2.80;;
71395;SDS011;59888;55.814;37.132;2023-07-16T06:45:13;3.58;;;2.67;;
71395;SDS011;59888;55.814;37.132;2023-07-16T06:47:39;3.78;;;2.92;;
71395;SDS011;59888;55.814;37.132;2023-07-16T06:50:05;3.65;;;2.65;;
71395;SDS011;59888;55.814;37.132;2023-07-16T06:52:32;3.50;;;2.83;;
71395;SDS011;59888;55.814;37.132;2023-07-16T06:54:57;3.65;;;2.72;;
71395;SDS011;59888;55.814;37.132;2023-07-16T06:57:23;4.82;;;2.72;;
71395;SDS011;59888;55.814;37.132;2023-07-16T06:59:50;3.58;;;2.80;;
71395;SDS011;59888;55.814;37.132;2023-07-16T07:02:16;3.53;;;2.63;;
71395;SDS011;59888;55.814;37.132;2023-07-16T07:04:43;4.10;;;2.53;;
71395;SDS011;59888;55.814;37.132;2023-07-16T07:07:08;5.68;;;2.58;;
71395;SDS011;59888;55.814;37.132;2023-07-16T07:09:34;3.80;;;2.78;;
71395;SDS011;59888;55.814;37.132;2023-07-16T07:12:01;5.90;;;2.88;;
71395;SDS011;59888;55.814;37.132;2023-07-16T07:14:27;3.42;;;2.50;;
71395;SDS011;59888;55.814;37.132;2023-07-16T07:16:54;2.85;;;2.35;;
71395;SDS011;59888;55.814;37.132;2023-07-16T07:19:20;4.03;;;2.28;;
71395;SDS011;59888;55.814;37.132;2023-07-16T07:21:46;5.43;;;2.60;;
71395;SDS011;59888;55.814;37.132;2023-07-16T07:24:12;4.20;;;2.22;;
71395;SDS011;59888;55.814;37.132;2023-07-16T07:26:38;3.55;;;2.72;;
71395;SDS011;59888;55.814;37.132;2023-07-16T07:29:04;3.33;;;2.47;;
71395;SDS011;59888;55.814;37.132;2023-07-16T07:31:30;3.85;;;2.60;;
71395;SDS011;59888;55.814;37.132;2023-07-16T07:33:57;4.03;;;2.45;;
71395;SDS011;59888;55.814;37.132;2023-07-16T07:36:24;2.55;;;2.30;;
71395;SDS011;59888;55.814;37.132;2023-07-16T07:38:50;3.58;;;2.53;;
71395;SDS011;59888;55.814;37.132;2023-07-16T07:41:16;7.68;;;2.63;;
71395;SDS011;59888;55.814;37.132;2023-07-16T07:43:42;4.35;;;2.40;;
71395;SDS011;59888;55.814;37.132;2023-07-16T07:46:08;3.10;;;2.40;;
71395;SDS011;59888;55.814;37.132;2023-07-16T07:48:35;3.63;;;2.50;;
71395;SDS011;59888;55.814;37.132;2023-07-16T07:51:02;6.68;;;2.50;;
71395;SDS011;59888;55.814;37.132;2023-07-16T07:53:28;4.95;;;2.90;;
71395;SDS011;59888;55.814;37.132;2023-07-16T07:55:54;3.42;;;2.50;;
71395;SDS011;59888;55.814;37.132;2023-07-16T07:58:20;3.35;;;2.80;;
71395;SDS011;59888;55.814;37.132;2023-07-16T08:00:46;3.85;;;2.42;;
71395;SDS011;59888;55.814;37.132;2023-07-16T08:03:12;4.55;;;2.45;;
71395;SDS011;59888;55.814;37.132;2023-07-16T08:05:38;3.75;;;2.70;;
71395;SDS011;59888;55.814;37.132;2023-07-16T08:08:04;4.60;;;2.90;;
71395;SDS011;59888;55.814;37.132;2023-07-16T08:10:30;4.28;;;2.50;;
71395;SDS011;59888;55.814;37.132;2023-07-16T08:12:56;4.50;;;2.88;;
71395;SDS011;59888;55.814;37.132;2023-07-16T08:15:22;4.78;;;2.72;;
71395;SDS011;59888;55.814;37.132;2023-07-16T08:17:48;3.55;;;2.78;;
71395;SDS011;59888;55.814;37.132;2023-07-16T08:20:15;5.18;;;2.60;;
71395;SDS011;59888;55.814;37.132;2023-07-16T08:22:41;4.20;;;2.42;;
71395;SDS011;59888;55.814;37.132;2023-07-16T08:25:07;3.83;;;2.60;;
71395;SDS011;59888;55.814;37.132;2023-07-16T08:27:38;3.60;;;2.40;;
71395;SDS011;59888;55.814;37.132;2023-07-16T08:30:04;4.28;;;2.67;;
71395;SDS011;59888;55.814;37.132;2023-07-16T08:32:32;6.50;;;3.00;;
71395;SDS011;59888;55.814;37.132;2023-07-16T08:34:58;3.60;;;2.80;;
71395;SDS011;59888;55.814;37.132;2023-07-16T08:37:24;3.80;;;2.72;;
71395;SDS011;59888;55.814;37.132;2023-07-16T08:39:51;3.80;;;2.60;;
71395;SDS011;59888;55.814;37.132;2023-07-16T08:42:18;4.20;;;2.65;;
71395;SDS011;59888;55.814;37.132;2023-07-16T08:44:45;5.22;;;2.80;;
71395;SDS011;59888;55.814;37.132;2023-07-16T08:47:11;4.35;;;2.58;;
71395;SDS011;59888;55.814;37.132;2023-07-16T08:49:37;3.03;;;2.47;;
71395;SDS011;59888;55.814;37.132;2023-07-16T08:52:06;3.65;;;2.58;;
71395;SDS011;59888;55.814;37.132;2023-07-16T08:54:33;4.72;;;2.67;;
71395;SDS011;59888;55.814;37.132;2023-07-16T08:56:59;4.93;;;3.13;;
71395;SDS011;59888;55.814;37.132;2023-07-16T08:59:26;3.53;;;2.63;;
71395;SDS011;59888;55.814;37.132;2023-07-16T09:01:53;4.68;;;3.08;;
71395;SDS011;59888;55.814;37.132;2023-07-16T09:04:19;4.68;;;2.90;;
71395;SDS011;59888;55.814;37.132;2023-07-16T09:06:45;3.70;;;2.50;;
71395;SDS011;59888;55.814;37.132;2023-07-16T09:09:23;4.47;;;2.70;;
71395;SDS011;59888;55.814;37.132;2023-07-16T09:11:50;4.53;;;2.80;;
71395;SDS011;59888;55.814;37.132;2023-07-16T09:14:17;6.03;;;2.83;;
71395;SDS011;59888;55.814;37.132;2023-07-16T09:16:49;2.83;;;2.28;;
71395;SDS011;59888;55.814;37.132;2023-07-16T09:19:16;4.72;;;2.67;;
71395;SDS011;59888;55.814;37.132;2023-07-16T09:21:47;5.07;;;3.13;;
71395;SDS011;59888;55.814;37.132;2023-07-16T09:24:14;6.53;;;3.97;;
71395;SDS011;59888;55.814;37.132;2023-07-16T09:26:50;9.40;;;5.10;;
71395;SDS011;59888;55.814;37.132;2023-07-16T09:29:18;12.18;;;6.38;;
71395;SDS011;59888;55.814;37.132;2023-07-16T09:31:55;5.22;;;3.22;;
71395;SDS011;59888;55.814;37.132;2023-07-16T09:34:23;4.85;;;3.42;;
71395;SDS011;59888;55.814;37.132;2023-07-16T09:36:52;9.65;;;4.53;;
71395;SDS011;59888;55.814;37.132;2023-07-16T09:39:18;7.30;;;4.25;;
71395;SDS011;59888;55.814;37.132;2023-07-16T09:41:47;9.98;;;5.68;;
71395;SDS011;59888;55.814;37.132;2023-07-16T09:44:15;4.60;;;3.25;;
71395;SDS011;59888;55.814;37.132;2023-07-16T09:46:42;8.57;;;5.68;;
71395;SDS011;59888;55.814;37.132;2023-07-16T09:49:09;12.85;;;6.78;;
71395;SDS011;59888;55.814;37.132;2023-07-16T09:51:36;7.43;;;3.40;;
71395;SDS011;59888;55.814;37.132;2023-07-16T09:54:03;8.35;;;5.25;;
71395;SDS011;59888;55.814;37.132;2023-07-16T09:56:36;4.18;;;2.63;;
71395;SDS011;59888;55.814;37.132;2023-07-16T09:59:08;4.20;;;2.88;;
71395;SDS011;59888;55.814;37.132;2023-07-16T10:01:37;4.30;;;2.25;;
71395;SDS011;59888;55.814;37.132;2023-07-16T10:04:11;3.97;;;2.65;;
71395;SDS011;59888;55.814;37.132;2023-07-16T10:06:47;6.75;;;2.72;;
71395;SDS011;59888;55.814;37.132;2023-07-16T10:09:30;4.15;;;2.60;;
71395;SDS011;59888;55.814;37.132;2023-07-16T10:12:16;6.22;;;3.25;;
71395;SDS011;59888;55.814;37.132;2023-07-16T10:14:47;5.45;;;2.80;;
71395;SDS011;59888;55.814;37.132;2023-07-16T10:17:15;7.70;;;3.00;;
71395;SDS011;59888;55.814;37.132;2023-07-16T10:19:54;4.20;;;2.60;;
71395;SDS011;59888;55.814;37.132;2023-07-16T10:22:47;6.10;;;2.80;;
71395;SDS011;59888;55.814;37.132;2023-07-16T10:27:43;6.10;;;2.97;;
71395;SDS011;59888;55.814;37.132;2023-07-16T10:30:10;4.70;;;2.83;;
71395;SDS011;59888;55.814;37.132;2023-07-16T10:32:36;4.78;;;3.00;;
71395;SDS011;59888;55.814;37.132;2023-07-16T10:35:04;4.55;;;2.97;;
71395;SDS011;59888;55.814;37.132;2023-07-16T10:37:31;4.97;;;2.88;;
71395;SDS011;59888;55.814;37.132;2023-07-16T10:39:58;3.97;;;2.60;;
71395;SDS011;59888;55.814;37.132;2023-07-16T10:42:26;5.78;;;2.85;;
71395;SDS011;59888;55.814;37.132;2023-07-16T10:44:54;6.75;;;2.50;;
71395;SDS011;59888;55.814;37.132;2023-07-16T10:47:32;5.30;;;2.83;;
71395;SDS011;59888;55.814;37.132;2023-07-16T10:50:03;4.43;;;2.70;;
71395;SDS011;59888;55.814;37.132;2023-07-16T10:52:32;4.15;;;2.75;;
71395;SDS011;59888;55.814;37.132;2023-07-16T10:54:58;6.32;;;3.00;;
71395;SDS011;59888;55.814;37.132;2023-07-16T10:57:24;4.32;;;2.67;;
71395;SDS011;59888;55.814;37.132;2023-07-16T10:59:51;4.00;;;3.00;;
71395;SDS011;59888;55.814;37.132;2023-07-16T11:02:18;5.18;;;3.00;;
71395;SDS011;59888;55.814;37.132;2023-07-16T11:04:46;5.80;;;2.95;;
71395;SDS011;59888;55.814;37.132;2023-07-16T11:07:14;3.70;;;2.90;;
71395;SDS011;59888;55.814;37.132;2023-07-16T11:09:41;4.18;;;2.70;;
71395;SDS011;59888;55.814;37.132;2023-07-16T11:12:08;6.60;;;3.10;;
71395;SDS011;59888;55.814;37.132;2023-07-16T11:14:35;5.25;;;2.50;;
71395;SDS011;59888;55.814;37.132;2023-07-16T11:17:07;5.30;;;3.25;;
71395;SDS011;59888;55.814;37.132;2023-07-16T11:19:34;4.00;;;2.33;;
71395;SDS011;59888;55.814;37.132;2023-07-16T11:22:01;2.95;;;2.28;;
71395;SDS011;59888;55.814;37.132;2023-07-16T11:24:28;3.20;;;2.45;;
71395;SDS011;59888;55.814;37.132;2023-07-16T11:26:54;6.10;;;2.30;;
71395;SDS011;59888;55.814;37.132;2023-07-16T11:29:23;4.35;;;2.42;;
71395;SDS011;59888;55.814;37.132;2023-07-16T11:31:49;2.65;;;2.05;;
71395;SDS011;59888;55.814;37.132;2023-07-16T11:34:21;3.40;;;2.40;;
71395;SDS011;59888;55.814;37.132;2023-07-16T11:36:48;3.38;;;2.22;;
71395;SDS011;59888;55.814;37.132;2023-07-16T11:39:15;4.65;;;2.25;;
71395;SDS011;59888;55.814;37.132;2023-07-16T11:41:41;4.18;;;2.60;;
71395;SDS011;59888;55.814;37.132;2023-07-16T11:44:08;4.53;;;2.50;;
71395;SDS011;59888;55.814;37.132;2023-07-16T11:46:34;5.25;;;2.58;;
71395;SDS011;59888;55.814;37.132;2023-07-16T11:49:01;4.45;;;2.80;;
71395;SDS011;59888;55.814;37.132;2023-07-16T11:51:28;3.83;;;2.00;;
71395;SDS011;59888;55.814;37.132;2023-07-16T11:53:55;2.70;;;2.28;;
71395;SDS011;59888;55.814;37.132;2023-07-16T11:56:21;3.15;;;2.33;;
71395;SDS011;59888;55.814;37.132;2023-07-16T11:58:49;3.45;;;2.40;;
71395;SDS011;59888;55.814;37.132;2023-07-16T12:01:15;3.40;;;2.10;;
71395;SDS011;59888;55.814;37.132;2023-07-16T12:03:41;4.65;;;2.35;;
71395;SDS011;59888;55.814;37.132;2023-07-16T12:06:08;4.10;;;2.33;;
71395;SDS011;59888;55.814;37.132;2023-07-16T12:08:34;3.05;;;2.35;;
71395;SDS011;59888;55.814;37.132;2023-07-16T12:11:00;3.40;;;2.50;;
71395;SDS011;59888;55.814;37.132;2023-07-16T12:13:26;4.57;;;2.10;;
71395;SDS011;59888;55.814;37.132;2023-07-16T12:15:52;3.00;;;2.30;;
71395;SDS011;59888;55.814;37.132;2023-07-16T12:18:18;3.00;;;2.30;;
71395;SDS011;59888;55.814;37.132;2023-07-16T12:20:44;3.28;;;2.30;;
71395;SDS011;59888;55.814;37.132;2023-07-16T12:23:10;3.10;;;2.20;;
71395;SDS011;59888;55.814;37.132;2023-07-16T12:25:36;2.60;;;2.10;;
71395;SDS011;59888;55.814;37.132;2023-07-16T12:28:02;3.03;;;2.20;;
71395;SDS011;59888;55.814;37.132;2023-07-16T12:30:29;2.90;;;2.10;;
71395;SDS011;59888;55.814;37.132;2023-07-16T12:32:55;4.15;;;2.22;;
71395;SDS011;59888;55.814;37.132;2023-07-16T12:35:21;2.90;;;2.15;;
71395;SDS011;59888;55.814;37.132;2023-07-16T12:37:47;3.45;;;2.17;;
71395;SDS011;59888;55.814;37.132;2023-07-16T12:40:13;3.47;;;2.25;;
71395;SDS011;59888;55.814;37.132;2023-07-16T12:42:39;4.47;;;2.85;;
71395;SDS011;59888;55.814;37.132;2023-07-16T12:45:05;4.43;;;2.95;;
71395;SDS011;59888;55.814;37.132;2023-07-16T12:47:32;5.03;;;3.25;;
71395;SDS011;59888;55.814;37.132;2023-07-16T12:49:58;3.40;;;2.55;;
71395;SDS011;59888;55.814;37.132;2023-07-16T12:52:24;3.42;;;2.50;;
71395;SDS011;59888;55.814;37.132;2023-07-16T12:54:50;3.25;;;2.30;;
71395;SDS011;59888;55.814;37.132;2023-07-16T12:57:17;5.13;;;2.58;;
71395;SDS011;59888;55.814;37.132;2023-07-16T12:59:43;8.20;;;3.08;;
71395;SDS011;59888;55.814;37.132;2023-07-16T13:02:09;3.50;;;2.50;;
71395;SDS011;59888;55.814;37.132;2023-07-16T13:04:35;4.88;;;2.40;;
71395;SDS011;59888;55.814;37.132;2023-07-16T13:07:01;5.72;;;2.40;;
71395;SDS011;59888;55.814;37.132;2023-07-16T13:09:27;3.67;;;2.35;;
71395;SDS011;59888;55.814;37.132;2023-07-16T13:11:53;3.83;;;2.47;;
71395;SDS011;59888;55.814;37.132;2023-07-16T13:14:19;4.15;;;2.60;;
71395;SDS011;59888;55.814;37.132;2023-07-16T13:16:45;2.78;;;2.28;;
71395;SDS011;59888;55.814;37.132;2023-07-16T13:19:11;2.80;;;2.30;;
71395;SDS011;59888;55.814;37.132;2023-07-16T13:21:37;4.03;;;2.38;;
71395;SDS011;59888;55.814;37.132;2023-07-16T13:24:03;2.85;;;2.30;;
71395;SDS011;59888;55.814;37.132;2023-07-16T13:26:30;5.88;;;2.17;;
71395;SDS011;59888;55.814;37.132;2023-07-16T13:28:56;3.30;;;2.55;;
71395;SDS011;59888;55.814;37.132;2023-07-16T13:31:22;3.33;;;2.55;;
71395;SDS011;59888;55.814;37.132;2023-07-16T13:33:48;2.45;;;1.75;;
71395;SDS011;59888;55.814;37.132;2023-07-16T13:36:14;2.97;;;2.17;;
71395;SDS011;59888;55.814;37.132;2023-07-16T13:38:40;4.40;;;2.30;;
71395;SDS011;59888;55.814;37.132;2023-07-16T13:41:06;3.70;;;2.30;;
71395;SDS011;59888;55.814;37.132;2023-07-16T13:43:32;2.80;;;2.13;;
71395;SDS011;59888;55.814;37.132;2023-07-16T13:45:58;3.25;;;2.42;;
71395;SDS011;59888;55.814;37.132;2023-07-16T13:48:24;3.05;;;2.38;;
71395;SDS011;59888;55.814;37.132;2023-07-16T13:50:50;3.83;;;2.60;;
71395;SDS011;59888;55.814;37.132;2023-07-16T13:53:16;4.90;;;2.70;;
71395;SDS011;59888;55.814;37.132;2023-07-16T13:55:42;3.15;;;2.63;;
71395;SDS011;59888;55.814;37.132;2023-07-16T13:58:09;5.57;;;2.67;;
71395;SDS011;59888;55.814;37.132;2023-07-16T14:00:36;3.53;;;2.63;;
71395;SDS011;59888;55.814;37.132;2023-07-16T14:03:02;3.67;;;2.40;;
71395;SDS011;59888;55.814;37.132;2023-07-16T14:05:28;3.05;;;2.13;;
71395;SDS011;59888;55.814;37.132;2023-07-16T14:07:54;6.43;;;2.65;;
71395;SDS011;59888;55.814;37.132;2023-07-16T14:10:20;5.00;;;2.83;;
71395;SDS011;59888;55.814;37.132;2023-07-16T14:12:47;3.60;;;2.60;;
71395;SDS011;59888;55.814;37.132;2023-07-16T14:15:13;4.78;;;3.15;;
71395;SDS011;59888;55.814;37.132;2023-07-16T14:17:39;4.72;;;2.90;;
71395;SDS011;59888;55.814;37.132;2023-07-16T14:20:05;4.95;;;3.53;;
71395;SDS011;59888;55.814;37.132;2023-07-16T14:22:32;3.03;;;2.60;;
71395;SDS011;59888;55.814;37.132;2023-07-16T14:24:58;5.40;;;3.20;;
71395;SDS011;59888;55.814;37.132;2023-07-16T14:27:24;3.90;;;2.70;;
71395;SDS011;59888;55.814;37.132;2023-07-16T14:29:50;4.10;;;3.10;;
71395;SDS011;59888;55.814;37.132;2023-07-16T14:32:16;5.25;;;3.17;;
71395;SDS011;59888;55.814;37.132;2023-07-16T14:34:42;4.47;;;2.90;;
71395;SDS011;59888;55.814;37.132;2023-07-16T14:37:08;4.43;;;2.70;;
71395;SDS011;59888;55.814;37.132;2023-07-16T14:39:34;7.85;;;3.20;;
71395;SDS011;59888;55.814;37.132;2023-07-16T14:42:00;3.83;;;3.05;;